sensor_id;sensor_type;location;lat;lon;timestamp;P1;durP1;ratioP1;P2;durP2;ratioP2
74972;SDS011;63529;56.320;43.990;2022-11-11T00:02:08;37.00;;;15.52;;
74972;SDS011;63529;56.320;43.990;2022-11-11T00:04:53;35.53;;;14.15;;
74972;SDS011;63529;56.320;43.990;2022-11-11T00:07:37;35.00;;;14.07;;
74972;SDS011;63529;56.320;43.990;2022-11-11T00:10:22;39.08;;;15.40;;
74972;SDS011;63529;56.320;43.990;2022-11-11T00:13:07;36.92;;;14.13;;
74972;SDS011;63529;56.320;43.990;2022-11-11T00:15:51;43.08;;;15.13;;
74972;SDS011;63529;56.320;43.990;2022-11-11T00:18:36;40.20;;;14.15;;
74972;SDS011;63529;56.320;43.990;2022-11-11T00:21:40;36.10;;;14.60;;
74972;SDS011;63529;56.320;43.990;2022-11-11T00:24:43;42.58;;;15.07;;
74972;SDS011;63529;56.320;43.990;2022-11-11T00:27:46;42.30;;;15.38;;
74972;SDS011;63529;56.320;43.990;2022-11-11T00:30:31;36.80;;;15.10;;
74972;SDS011;63529;56.320;43.990;2022-11-11T00:33:15;42.17;;;15.32;;
74972;SDS011;63529;56.320;43.990;2022-11-11T00:36:00;38.17;;;14.00;;
74972;SDS011;63529;56.320;43.990;2022-11-11T00:38:44;41.33;;;15.63;;
74972;SDS011;63529;56.320;43.990;2022-11-11T00:41:29;40.22;;;14.43;;
74972;SDS011;63529;56.320;43.990;2022-11-11T00:44:13;36.63;;;14.15;;
74972;SDS011;63529;56.320;43.990;2022-11-11T00:46:58;39.28;;;15.32;;
74972;SDS011;63529;56.320;43.990;2022-11-11T00:50:02;42.63;;;14.73;;
74972;SDS011;63529;56.320;43.990;2022-11-11T00:53:12;35.78;;;13.65;;
74972;SDS011;63529;56.320;43.990;2022-11-11T00:55:59;36.38;;;14.25;;
74972;SDS011;63529;56.320;43.990;2022-11-11T00:58:44;40.42;;;13.85;;
74972;SDS011;63529;56.320;43.990;2022-11-11T01:01:28;40.55;;;14.70;;
74972;SDS011;63529;56.320;43.990;2022-11-11T01:04:13;40.03;;;14.18;;
74972;SDS011;63529;56.320;43.990;2022-11-11T01:06:57;40.08;;;13.90;;
74972;SDS011;63529;56.320;43.990;2022-11-11T01:09:41;38.55;;;14.38;;
74972;SDS011;63529;56.320;43.990;2022-11-11T01:12:26;38.17;;;14.90;;
74972;SDS011;63529;56.320;43.990;2022-11-11T01:15:10;45.85;;;14.82;;
74972;SDS011;63529;56.320;43.990;2022-11-11T01:17:55;40.95;;;13.57;;
74972;SDS011;63529;56.320;43.990;2022-11-11T01:20:40;35.63;;;13.60;;
74972;SDS011;63529;56.320;43.990;2022-11-11T01:23:25;42.72;;;13.45;;
74972;SDS011;63529;56.320;43.990;2022-11-11T01:26:15;32.85;;;12.93;;
74972;SDS011;63529;56.320;43.990;2022-11-11T01:29:03;36.30;;;13.02;;
74972;SDS011;63529;56.320;43.990;2022-11-11T01:31:48;37.20;;;13.50;;
74972;SDS011;63529;56.320;43.990;2022-11-11T01:34:32;41.03;;;14.20;;
74972;SDS011;63529;56.320;43.990;2022-11-11T01:37:17;39.70;;;13.85;;
74972;SDS011;63529;56.320;43.990;2022-11-11T01:40:01;39.25;;;13.80;;
74972;SDS011;63529;56.320;43.990;2022-11-11T01:42:53;33.90;;;12.95;;
74972;SDS011;63529;56.320;43.990;2022-11-11T01:45:58;40.50;;;13.27;;
74972;SDS011;63529;56.320;43.990;2022-11-11T01:48:47;29.95;;;12.55;;
74972;SDS011;63529;56.320;43.990;2022-11-11T02:00:37;33.47;;;12.35;;
74972;SDS011;63529;56.320;43.990;2022-11-11T02:03:22;30.95;;;12.20;;
74972;SDS011;63529;56.320;43.990;2022-11-11T02:06:09;34.08;;;12.00;;
74972;SDS011;63529;56.320;43.990;2022-11-11T02:08:54;32.78;;;12.00;;
74972;SDS011;63529;56.320;43.990;2022-11-11T02:11:39;29.60;;;11.77;;
74972;SDS011;63529;56.320;43.990;2022-11-11T02:14:44;30.67;;;11.35;;
74972;SDS011;63529;56.320;43.990;2022-11-11T02:17:32;30.85;;;12.60;;
74972;SDS011;63529;56.320;43.990;2022-11-11T02:20:18;34.25;;;11.80;;
74972;SDS011;63529;56.320;43.990;2022-11-11T02:23:10;31.05;;;12.18;;
74972;SDS011;63529;56.320;43.990;2022-11-11T02:26:00;32.15;;;12.00;;
74972;SDS011;63529;56.320;43.990;2022-11-11T02:28:47;31.42;;;11.02;;
74972;SDS011;63529;56.320;43.990;2022-11-11T02:31:34;29.25;;;11.60;;
74972;SDS011;63529;56.320;43.990;2022-11-11T02:34:18;31.05;;;10.98;;
74972;SDS011;63529;56.320;43.990;2022-11-11T02:37:04;29.23;;;10.82;;
74972;SDS011;63529;56.320;43.990;2022-11-11T02:39:51;29.50;;;11.10;;
74972;SDS011;63529;56.320;43.990;2022-11-11T02:42:40;29.85;;;11.40;;
74972;SDS011;63529;56.320;43.990;2022-11-11T02:45:25;28.90;;;11.50;;
74972;SDS011;63529;56.320;43.990;2022-11-11T02:48:10;30.17;;;12.18;;
74972;SDS011;63529;56.320;43.990;2022-11-11T02:50:55;32.00;;;11.45;;
74972;SDS011;63529;56.320;43.990;2022-11-11T02:53:39;29.65;;;11.00;;
74972;SDS011;63529;56.320;43.990;2022-11-11T02:56:23;29.55;;;11.65;;
74972;SDS011;63529;56.320;43.990;2022-11-11T02:59:27;32.97;;;12.35;;
74972;SDS011;63529;56.320;43.990;2022-11-11T03:02:11;28.58;;;10.73;;
74972;SDS011;63529;56.320;43.990;2022-11-11T03:04:56;25.30;;;10.60;;
74972;SDS011;63529;56.320;43.990;2022-11-11T03:07:41;28.13;;;10.52;;
74972;SDS011;63529;56.320;43.990;2022-11-11T03:10:26;27.45;;;11.07;;
74972;SDS011;63529;56.320;43.990;2022-11-11T03:13:10;30.27;;;10.90;;
74972;SDS011;63529;56.320;43.990;2022-11-11T03:15:54;30.73;;;12.10;;
74972;SDS011;63529;56.320;43.990;2022-11-11T03:18:39;31.05;;;11.23;;
74972;SDS011;63529;56.320;43.990;2022-11-11T03:21:23;26.77;;;10.32;;
74972;SDS011;63529;56.320;43.990;2022-11-11T03:24:07;29.10;;;11.48;;
74972;SDS011;63529;56.320;43.990;2022-11-11T03:26:52;31.88;;;11.82;;
74972;SDS011;63529;56.320;43.990;2022-11-11T03:29:36;27.73;;;11.60;;
74972;SDS011;63529;56.320;43.990;2022-11-11T03:32:21;31.65;;;11.75;;
74972;SDS011;63529;56.320;43.990;2022-11-11T03:35:05;34.60;;;12.40;;
74972;SDS011;63529;56.320;43.990;2022-11-11T03:37:50;35.80;;;13.52;;
74972;SDS011;63529;56.320;43.990;2022-11-11T03:40:54;37.78;;;13.32;;
74972;SDS011;63529;56.320;43.990;2022-11-11T03:43:40;34.72;;;13.43;;
74972;SDS011;63529;56.320;43.990;2022-11-11T03:46:24;37.83;;;14.02;;
74972;SDS011;63529;56.320;43.990;2022-11-11T03:49:08;39.90;;;13.93;;
74972;SDS011;63529;56.320;43.990;2022-11-11T03:51:53;38.45;;;13.85;;
74972;SDS011;63529;56.320;43.990;2022-11-11T03:54:37;37.22;;;14.48;;
74972;SDS011;63529;56.320;43.990;2022-11-11T03:57:22;41.03;;;14.18;;
74972;SDS011;63529;56.320;43.990;2022-11-11T04:00:17;40.22;;;13.40;;
74972;SDS011;63529;56.320;43.990;2022-11-11T04:03:04;38.38;;;13.45;;
74972;SDS011;63529;56.320;43.990;2022-11-11T04:06:09;44.47;;;14.95;;
74972;SDS011;63529;56.320;43.990;2022-11-11T04:09:12;36.67;;;13.27;;
74972;SDS011;63529;56.320;43.990;2022-11-11T04:12:16;35.47;;;12.52;;
74972;SDS011;63529;56.320;43.990;2022-11-11T04:15:00;35.97;;;14.00;;
74972;SDS011;63529;56.320;43.990;2022-11-11T04:18:03;39.60;;;13.48;;
74972;SDS011;63529;56.320;43.990;2022-11-11T04:20:47;37.05;;;14.82;;
74972;SDS011;63529;56.320;43.990;2022-11-11T04:23:50;39.38;;;14.95;;
74972;SDS011;63529;56.320;43.990;2022-11-11T04:26:35;35.22;;;14.10;;
74972;SDS011;63529;56.320;43.990;2022-11-11T04:29:19;36.30;;;13.30;;
74972;SDS011;63529;56.320;43.990;2022-11-11T04:32:14;36.47;;;13.43;;
74972;SDS011;63529;56.320;43.990;2022-11-11T04:35:21;32.28;;;12.15;;
74972;SDS011;63529;56.320;43.990;2022-11-11T04:38:07;32.55;;;12.30;;
74972;SDS011;63529;56.320;43.990;2022-11-11T04:41:10;34.33;;;12.80;;
74972;SDS011;63529;56.320;43.990;2022-11-11T04:43:55;33.95;;;12.15;;
74972;SDS011;63529;56.320;43.990;2022-11-11T04:46:58;37.08;;;12.82;;
74972;SDS011;63529;56.320;43.990;2022-11-11T04:49:43;39.75;;;14.43;;
74972;SDS011;63529;56.320;43.990;2022-11-11T04:52:29;30.77;;;11.77;;
74972;SDS011;63529;56.320;43.990;2022-11-11T04:55:14;29.88;;;12.43;;
74972;SDS011;63529;56.320;43.990;2022-11-11T04:58:19;31.95;;;12.27;;
74972;SDS011;63529;56.320;43.990;2022-11-11T05:01:05;34.50;;;12.77;;
74972;SDS011;63529;56.320;43.990;2022-11-11T05:03:49;32.67;;;12.88;;
74972;SDS011;63529;56.320;43.990;2022-11-11T05:06:34;33.97;;;12.02;;
74972;SDS011;63529;56.320;43.990;2022-11-11T05:09:37;30.05;;;11.50;;
74972;SDS011;63529;56.320;43.990;2022-11-11T05:12:21;28.38;;;11.85;;
74972;SDS011;63529;56.320;43.990;2022-11-11T05:15:07;28.10;;;11.73;;
74972;SDS011;63529;56.320;43.990;2022-11-11T05:18:10;29.10;;;11.98;;
74972;SDS011;63529;56.320;43.990;2022-11-11T05:21:27;35.17;;;12.10;;
74972;SDS011;63529;56.320;43.990;2022-11-11T05:24:14;33.15;;;12.85;;
74972;SDS011;63529;56.320;43.990;2022-11-11T05:27:17;30.65;;;11.65;;
74972;SDS011;63529;56.320;43.990;2022-11-11T05:30:04;30.65;;;11.80;;
74972;SDS011;63529;56.320;43.990;2022-11-11T05:32:50;30.38;;;11.80;;
74972;SDS011;63529;56.320;43.990;2022-11-11T05:35:34;25.65;;;10.45;;
74972;SDS011;63529;56.320;43.990;2022-11-11T05:38:19;32.85;;;10.50;;
74972;SDS011;63529;56.320;43.990;2022-11-11T05:41:04;24.35;;;9.98;;
74972;SDS011;63529;56.320;43.990;2022-11-11T05:43:49;27.73;;;11.20;;
74972;SDS011;63529;56.320;43.990;2022-11-11T05:46:33;33.30;;;11.05;;
74972;SDS011;63529;56.320;43.990;2022-11-11T05:49:18;26.63;;;10.50;;
74972;SDS011;63529;56.320;43.990;2022-11-11T05:52:03;26.02;;;10.60;;
74972;SDS011;63529;56.320;43.990;2022-11-11T05:54:49;28.50;;;10.85;;
74972;SDS011;63529;56.320;43.990;2022-11-11T05:57:34;29.70;;;11.90;;
74972;SDS011;63529;56.320;43.990;2022-11-11T06:00:18;27.10;;;10.52;;
74972;SDS011;63529;56.320;43.990;2022-11-11T06:03:04;30.48;;;11.20;;
74972;SDS011;63529;56.320;43.990;2022-11-11T06:05:49;28.30;;;10.77;;
74972;SDS011;63529;56.320;43.990;2022-11-11T06:08:34;26.27;;;10.75;;
74972;SDS011;63529;56.320;43.990;2022-11-11T06:11:19;27.67;;;10.70;;
74972;SDS011;63529;56.320;43.990;2022-11-11T06:14:03;27.70;;;11.77;;
74972;SDS011;63529;56.320;43.990;2022-11-11T06:16:48;28.40;;;10.65;;
74972;SDS011;63529;56.320;43.990;2022-11-11T06:19:33;30.65;;;11.18;;
74972;SDS011;63529;56.320;43.990;2022-11-11T06:22:17;27.65;;;11.45;;
74972;SDS011;63529;56.320;43.990;2022-11-11T06:25:29;29.40;;;11.85;;
74972;SDS011;63529;56.320;43.990;2022-11-11T06:28:33;29.00;;;10.63;;
74972;SDS011;63529;56.320;43.990;2022-11-11T06:31:22;27.15;;;10.70;;
74972;SDS011;63529;56.320;43.990;2022-11-11T06:34:08;30.52;;;11.65;;
74972;SDS011;63529;56.320;43.990;2022-11-11T06:36:53;28.40;;;10.80;;
74972;SDS011;63529;56.320;43.990;2022-11-11T06:39:37;29.92;;;11.93;;
74972;SDS011;63529;56.320;43.990;2022-11-11T06:42:22;26.75;;;9.85;;
74972;SDS011;63529;56.320;43.990;2022-11-11T06:45:07;27.48;;;11.20;;
74972;SDS011;63529;56.320;43.990;2022-11-11T06:47:51;26.75;;;11.02;;
74972;SDS011;63529;56.320;43.990;2022-11-11T06:50:36;23.52;;;10.65;;
74972;SDS011;63529;56.320;43.990;2022-11-11T06:53:22;31.52;;;12.05;;
74972;SDS011;63529;56.320;43.990;2022-11-11T06:56:11;27.80;;;10.50;;
74972;SDS011;63529;56.320;43.990;2022-11-11T06:59:10;29.77;;;11.55;;
74972;SDS011;63529;56.320;43.990;2022-11-11T07:01:56;31.80;;;11.23;;
74972;SDS011;63529;56.320;43.990;2022-11-11T07:04:40;30.98;;;11.50;;
74972;SDS011;63529;56.320;43.990;2022-11-11T07:07:25;35.25;;;12.50;;
74972;SDS011;63529;56.320;43.990;2022-11-11T07:10:11;25.48;;;9.45;;
74972;SDS011;63529;56.320;43.990;2022-11-11T07:12:55;29.38;;;10.85;;
74972;SDS011;63529;56.320;43.990;2022-11-11T07:15:41;31.25;;;10.90;;
74972;SDS011;63529;56.320;43.990;2022-11-11T07:18:26;28.13;;;10.90;;
74972;SDS011;63529;56.320;43.990;2022-11-11T07:21:11;29.90;;;11.27;;
74972;SDS011;63529;56.320;43.990;2022-11-11T07:23:55;29.92;;;10.20;;
74972;SDS011;63529;56.320;43.990;2022-11-11T07:26:40;22.95;;;9.10;;
74972;SDS011;63529;56.320;43.990;2022-11-11T07:29:25;22.98;;;9.52;;
74972;SDS011;63529;56.320;43.990;2022-11-11T07:32:10;31.35;;;10.32;;
74972;SDS011;63529;56.320;43.990;2022-11-11T07:34:54;28.70;;;11.55;;
74972;SDS011;63529;56.320;43.990;2022-11-11T07:37:38;30.58;;;10.75;;
74972;SDS011;63529;56.320;43.990;2022-11-11T07:40:23;24.73;;;9.27;;
74972;SDS011;63529;56.320;43.990;2022-11-11T07:43:08;22.15;;;9.07;;
74972;SDS011;63529;56.320;43.990;2022-11-11T07:45:52;25.45;;;10.70;;
74972;SDS011;63529;56.320;43.990;2022-11-11T07:48:36;20.40;;;8.30;;
74972;SDS011;63529;56.320;43.990;2022-11-11T07:51:21;21.05;;;9.18;;
74972;SDS011;63529;56.320;43.990;2022-11-11T07:54:06;20.73;;;7.95;;
74972;SDS011;63529;56.320;43.990;2022-11-11T07:56:51;24.98;;;9.18;;
74972;SDS011;63529;56.320;43.990;2022-11-11T07:59:35;18.85;;;7.78;;
74972;SDS011;63529;56.320;43.990;2022-11-11T08:02:19;20.30;;;8.85;;
74972;SDS011;63529;56.320;43.990;2022-11-11T08:05:04;22.77;;;8.85;;
74972;SDS011;63529;56.320;43.990;2022-11-11T08:07:49;18.50;;;8.38;;
74972;SDS011;63529;56.320;43.990;2022-11-11T08:10:33;18.55;;;7.82;;
74972;SDS011;63529;56.320;43.990;2022-11-11T08:13:18;18.92;;;9.20;;
74972;SDS011;63529;56.320;43.990;2022-11-11T08:16:22;18.10;;;7.28;;
74972;SDS011;63529;56.320;43.990;2022-11-11T08:19:06;14.88;;;6.53;;
74972;SDS011;63529;56.320;43.990;2022-11-11T08:21:51;18.88;;;7.55;;
74972;SDS011;63529;56.320;43.990;2022-11-11T08:24:35;17.17;;;7.20;;
74972;SDS011;63529;56.320;43.990;2022-11-11T08:27:20;17.17;;;7.05;;
74972;SDS011;63529;56.320;43.990;2022-11-11T08:30:05;18.20;;;7.38;;
74972;SDS011;63529;56.320;43.990;2022-11-11T08:33:01;19.60;;;7.70;;
74972;SDS011;63529;56.320;43.990;2022-11-11T08:35:47;15.60;;;7.18;;
74972;SDS011;63529;56.320;43.990;2022-11-11T08:38:32;15.25;;;6.78;;
74972;SDS011;63529;56.320;43.990;2022-11-11T08:41:17;15.82;;;6.38;;
74972;SDS011;63529;56.320;43.990;2022-11-11T08:44:04;14.70;;;5.88;;
74972;SDS011;63529;56.320;43.990;2022-11-11T08:46:49;12.35;;;6.22;;
74972;SDS011;63529;56.320;43.990;2022-11-11T08:49:33;14.85;;;5.68;;
74972;SDS011;63529;56.320;43.990;2022-11-11T08:52:17;14.90;;;6.28;;
74972;SDS011;63529;56.320;43.990;2022-11-11T08:55:02;16.65;;;6.68;;
74972;SDS011;63529;56.320;43.990;2022-11-11T08:57:47;15.32;;;6.07;;
74972;SDS011;63529;56.320;43.990;2022-11-11T09:00:31;12.15;;;5.45;;
74972;SDS011;63529;56.320;43.990;2022-11-11T09:03:17;10.75;;;5.00;;
74972;SDS011;63529;56.320;43.990;2022-11-11T09:06:02;17.00;;;6.00;;
74972;SDS011;63529;56.320;43.990;2022-11-11T09:08:47;14.88;;;6.93;;
74972;SDS011;63529;56.320;43.990;2022-11-11T09:11:31;12.85;;;5.70;;
74972;SDS011;63529;56.320;43.990;2022-11-11T09:14:19;15.63;;;6.47;;
74972;SDS011;63529;56.320;43.990;2022-11-11T09:17:05;13.55;;;5.88;;
74972;SDS011;63529;56.320;43.990;2022-11-11T09:19:50;12.43;;;6.28;;
74972;SDS011;63529;56.320;43.990;2022-11-11T09:22:40;13.32;;;5.70;;
74972;SDS011;63529;56.320;43.990;2022-11-11T09:25:25;17.95;;;5.97;;
74972;SDS011;63529;56.320;43.990;2022-11-11T09:28:10;12.45;;;5.57;;
74972;SDS011;63529;56.320;43.990;2022-11-11T09:30:57;14.90;;;6.20;;
74972;SDS011;63529;56.320;43.990;2022-11-11T09:33:45;12.88;;;5.93;;
74972;SDS011;63529;56.320;43.990;2022-11-11T09:36:29;16.65;;;6.63;;
74972;SDS011;63529;56.320;43.990;2022-11-11T09:39:14;12.95;;;6.50;;
74972;SDS011;63529;56.320;43.990;2022-11-11T09:51:04;11.35;;;5.03;;
74972;SDS011;63529;56.320;43.990;2022-11-11T09:54:00;13.32;;;6.30;;
74972;SDS011;63529;56.320;43.990;2022-11-11T09:56:50;9.65;;;5.10;;
74972;SDS011;63529;56.320;43.990;2022-11-11T09:59:39;13.70;;;5.85;;
74972;SDS011;63529;56.320;43.990;2022-11-11T10:02:34;13.82;;;5.55;;
74972;SDS011;63529;56.320;43.990;2022-11-11T10:11:28;15.18;;;5.65;;
74972;SDS011;63529;56.320;43.990;2022-11-11T10:14:32;17.75;;;8.25;;
74972;SDS011;63529;56.320;43.990;2022-11-11T10:20:36;14.18;;;6.25;;
74972;SDS011;63529;56.320;43.990;2022-11-11T10:23:31;13.90;;;5.82;;
74972;SDS011;63529;56.320;43.990;2022-11-11T10:26:19;13.60;;;5.85;;
74972;SDS011;63529;56.320;43.990;2022-11-11T10:29:14;13.27;;;5.93;;
74972;SDS011;63529;56.320;43.990;2022-11-11T10:32:14;10.73;;;4.88;;
74972;SDS011;63529;56.320;43.990;2022-11-11T10:35:44;13.50;;;6.57;;
74972;SDS011;63529;56.320;43.990;2022-11-11T10:41:25;21.77;;;8.43;;
74972;SDS011;63529;56.320;43.990;2022-11-11T10:44:25;14.45;;;6.88;;
74972;SDS011;63529;56.320;43.990;2022-11-11T10:58:47;13.43;;;6.72;;
74972;SDS011;63529;56.320;43.990;2022-11-11T11:01:37;12.63;;;6.22;;
74972;SDS011;63529;56.320;43.990;2022-11-11T11:04:46;13.85;;;5.63;;
74972;SDS011;63529;56.320;43.990;2022-11-11T11:07:45;16.25;;;7.25;;
74972;SDS011;63529;56.320;43.990;2022-11-11T11:10:50;13.00;;;6.45;;
74972;SDS011;63529;56.320;43.990;2022-11-11T11:13:42;13.68;;;6.38;;
74972;SDS011;63529;56.320;43.990;2022-11-11T11:16:33;16.50;;;6.45;;
74972;SDS011;63529;56.320;43.990;2022-11-11T11:19:24;15.75;;;6.43;;
74972;SDS011;63529;56.320;43.990;2022-11-11T11:22:10;12.15;;;6.13;;
74972;SDS011;63529;56.320;43.990;2022-11-11T11:25:07;16.75;;;6.47;;
74972;SDS011;63529;56.320;43.990;2022-11-11T11:28:03;17.52;;;6.82;;
74972;SDS011;63529;56.320;43.990;2022-11-11T11:31:03;14.82;;;6.40;;
74972;SDS011;63529;56.320;43.990;2022-11-11T11:33:50;15.63;;;7.90;;
74972;SDS011;63529;56.320;43.990;2022-11-11T11:36:36;15.57;;;6.88;;
74972;SDS011;63529;56.320;43.990;2022-11-11T11:39:34;14.60;;;6.72;;
74972;SDS011;63529;56.320;43.990;2022-11-11T11:42:29;15.55;;;7.07;;
74972;SDS011;63529;56.320;43.990;2022-11-11T11:45:24;13.07;;;6.05;;
74972;SDS011;63529;56.320;43.990;2022-11-11T11:55:22;14.70;;;6.28;;
74972;SDS011;63529;56.320;43.990;2022-11-11T12:01:13;16.65;;;6.47;;
74972;SDS011;63529;56.320;43.990;2022-11-11T12:10:22;13.85;;;6.38;;
74972;SDS011;63529;56.320;43.990;2022-11-11T12:32:15;17.70;;;6.43;;
74972;SDS011;63529;56.320;43.990;2022-11-11T12:35:25;16.63;;;6.60;;
74972;SDS011;63529;56.320;43.990;2022-11-11T12:50:30;16.88;;;6.88;;
74972;SDS011;63529;56.320;43.990;2022-11-11T12:59:51;15.05;;;6.47;;
74972;SDS011;63529;56.320;43.990;2022-11-11T13:05:54;14.75;;;7.18;;
74972;SDS011;63529;56.320;43.990;2022-11-11T13:11:54;19.67;;;7.53;;
74972;SDS011;63529;56.320;43.990;2022-11-11T13:17:34;18.35;;;7.55;;
74972;SDS011;63529;56.320;43.990;2022-11-11T13:23:23;22.10;;;8.88;;
74972;SDS011;63529;56.320;43.990;2022-11-11T13:26:32;20.75;;;9.60;;
74972;SDS011;63529;56.320;43.990;2022-11-11T13:32:39;18.55;;;7.75;;
74972;SDS011;63529;56.320;43.990;2022-11-11T13:35:29;17.90;;;7.88;;
74972;SDS011;63529;56.320;43.990;2022-11-11T13:41:22;21.65;;;8.40;;
74972;SDS011;63529;56.320;43.990;2022-11-11T13:44:18;22.70;;;8.48;;
74972;SDS011;63529;56.320;43.990;2022-11-11T13:47:09;21.45;;;8.38;;
74972;SDS011;63529;56.320;43.990;2022-11-11T13:49:59;24.55;;;9.02;;
74972;SDS011;63529;56.320;43.990;2022-11-11T13:52:53;24.73;;;9.65;;
74972;SDS011;63529;56.320;43.990;2022-11-11T13:55:40;20.63;;;8.93;;
74972;SDS011;63529;56.320;43.990;2022-11-11T13:58:31;20.23;;;8.63;;
74972;SDS011;63529;56.320;43.990;2022-11-11T14:01:19;22.92;;;8.77;;
74972;SDS011;63529;56.320;43.990;2022-11-11T14:04:04;20.02;;;8.48;;
74972;SDS011;63529;56.320;43.990;2022-11-11T14:06:53;23.98;;;9.60;;
74972;SDS011;63529;56.320;43.990;2022-11-11T14:09:54;24.77;;;9.52;;
74972;SDS011;63529;56.320;43.990;2022-11-11T14:12:48;23.85;;;9.45;;
74972;SDS011;63529;56.320;43.990;2022-11-11T14:18:37;28.77;;;11.18;;
74972;SDS011;63529;56.320;43.990;2022-11-11T14:24:41;26.13;;;9.75;;
74972;SDS011;63529;56.320;43.990;2022-11-11T14:27:31;22.77;;;9.60;;
74972;SDS011;63529;56.320;43.990;2022-11-11T14:30:31;29.13;;;10.48;;
74972;SDS011;63529;56.320;43.990;2022-11-11T14:33:23;26.33;;;9.85;;
74972;SDS011;63529;56.320;43.990;2022-11-11T14:54:35;27.60;;;9.85;;
74972;SDS011;63529;56.320;43.990;2022-11-11T14:57:39;24.65;;;10.20;;
74972;SDS011;63529;56.320;43.990;2022-11-11T15:00:32;29.70;;;11.43;;
74972;SDS011;63529;56.320;43.990;2022-11-11T15:03:35;22.92;;;9.30;;
74972;SDS011;63529;56.320;43.990;2022-11-11T15:06:43;24.90;;;10.43;;
74972;SDS011;63529;56.320;43.990;2022-11-11T15:09:51;25.70;;;10.35;;
74972;SDS011;63529;56.320;43.990;2022-11-11T15:12:42;26.67;;;9.68;;
74972;SDS011;63529;56.320;43.990;2022-11-11T15:22:29;24.48;;;9.35;;
74972;SDS011;63529;56.320;43.990;2022-11-11T15:25:49;27.73;;;9.88;;
74972;SDS011;63529;56.320;43.990;2022-11-11T15:38:17;25.88;;;9.63;;
74972;SDS011;63529;56.320;43.990;2022-11-11T15:41:03;26.73;;;9.65;;
74972;SDS011;63529;56.320;43.990;2022-11-11T15:43:48;29.55;;;10.60;;
74972;SDS011;63529;56.320;43.990;2022-11-11T15:46:34;29.98;;;9.93;;
74972;SDS011;63529;56.320;43.990;2022-11-11T15:49:36;28.40;;;10.55;;
74972;SDS011;63529;56.320;43.990;2022-11-11T15:55:35;27.50;;;10.15;;
74972;SDS011;63529;56.320;43.990;2022-11-11T15:58:25;27.55;;;11.13;;
74972;SDS011;63529;56.320;43.990;2022-11-11T16:01:11;26.75;;;8.98;;
74972;SDS011;63529;56.320;43.990;2022-11-11T16:03:56;23.75;;;9.32;;
74972;SDS011;63529;56.320;43.990;2022-11-11T16:06:41;34.40;;;10.93;;
74972;SDS011;63529;56.320;43.990;2022-11-11T16:09:26;28.30;;;10.32;;
74972;SDS011;63529;56.320;43.990;2022-11-11T16:12:15;32.60;;;10.95;;
74972;SDS011;63529;56.320;43.990;2022-11-11T16:15:04;26.17;;;9.45;;
74972;SDS011;63529;56.320;43.990;2022-11-11T16:17:53;27.70;;;9.27;;
74972;SDS011;63529;56.320;43.990;2022-11-11T16:20:43;25.42;;;10.80;;
74972;SDS011;63529;56.320;43.990;2022-11-11T16:23:33;26.48;;;9.23;;
74972;SDS011;63529;56.320;43.990;2022-11-11T16:26:19;25.02;;;9.10;;
74972;SDS011;63529;56.320;43.990;2022-11-11T16:29:08;26.83;;;8.98;;
74972;SDS011;63529;56.320;43.990;2022-11-11T16:31:57;24.90;;;9.30;;
74972;SDS011;63529;56.320;43.990;2022-11-11T16:34:42;23.90;;;9.20;;
74972;SDS011;63529;56.320;43.990;2022-11-11T16:37:29;26.45;;;9.02;;
74972;SDS011;63529;56.320;43.990;2022-11-11T16:40:34;26.92;;;9.07;;
74972;SDS011;63529;56.320;43.990;2022-11-11T16:43:24;27.05;;;8.18;;
74972;SDS011;63529;56.320;43.990;2022-11-11T16:46:36;24.67;;;10.07;;
74972;SDS011;63529;56.320;43.990;2022-11-11T16:52:18;24.58;;;9.63;;
74972;SDS011;63529;56.320;43.990;2022-11-11T16:55:05;24.73;;;9.52;;
74972;SDS011;63529;56.320;43.990;2022-11-11T16:57:53;29.38;;;8.55;;
74972;SDS011;63529;56.320;43.990;2022-11-11T17:00:38;25.63;;;10.13;;
74972;SDS011;63529;56.320;43.990;2022-11-11T17:03:26;23.60;;;9.48;;
74972;SDS011;63529;56.320;43.990;2022-11-11T17:06:11;25.83;;;9.52;;
74972;SDS011;63529;56.320;43.990;2022-11-11T17:08:55;26.83;;;10.65;;
74972;SDS011;63529;56.320;43.990;2022-11-11T17:14:26;22.48;;;8.80;;
74972;SDS011;63529;56.320;43.990;2022-11-11T17:17:12;27.95;;;10.35;;
74972;SDS011;63529;56.320;43.990;2022-11-11T17:19:57;21.73;;;8.77;;
74972;SDS011;63529;56.320;43.990;2022-11-11T17:22:48;24.17;;;9.38;;
74972;SDS011;63529;56.320;43.990;2022-11-11T17:25:34;22.13;;;8.35;;
74972;SDS011;63529;56.320;43.990;2022-11-11T17:28:18;26.58;;;9.98;;
74972;SDS011;63529;56.320;43.990;2022-11-11T17:31:07;19.88;;;7.70;;
74972;SDS011;63529;56.320;43.990;2022-11-11T17:33:53;22.98;;;8.35;;
74972;SDS011;63529;56.320;43.990;2022-11-11T17:36:37;26.00;;;8.55;;
74972;SDS011;63529;56.320;43.990;2022-11-11T17:39:22;25.65;;;9.63;;
74972;SDS011;63529;56.320;43.990;2022-11-11T17:42:06;24.90;;;9.68;;
74972;SDS011;63529;56.320;43.990;2022-11-11T17:44:50;26.85;;;9.25;;
74972;SDS011;63529;56.320;43.990;2022-11-11T17:47:35;23.05;;;8.73;;
74972;SDS011;63529;56.320;43.990;2022-11-11T17:50:19;23.95;;;10.00;;
74972;SDS011;63529;56.320;43.990;2022-11-11T17:53:04;25.85;;;9.70;;
74972;SDS011;63529;56.320;43.990;2022-11-11T17:55:50;24.35;;;9.00;;
74972;SDS011;63529;56.320;43.990;2022-11-11T17:58:34;26.08;;;8.73;;
74972;SDS011;63529;56.320;43.990;2022-11-11T18:01:21;21.52;;;8.95;;
74972;SDS011;63529;56.320;43.990;2022-11-11T18:04:06;22.35;;;8.25;;
74972;SDS011;63529;56.320;43.990;2022-11-11T18:06:50;20.85;;;8.20;;
74972;SDS011;63529;56.320;43.990;2022-11-11T18:09:35;21.85;;;8.50;;
74972;SDS011;63529;56.320;43.990;2022-11-11T18:12:19;21.23;;;7.85;;
74972;SDS011;63529;56.320;43.990;2022-11-11T18:15:04;21.23;;;7.55;;
74972;SDS011;63529;56.320;43.990;2022-11-11T18:17:49;24.23;;;7.75;;
74972;SDS011;63529;56.320;43.990;2022-11-11T18:20:34;21.25;;;8.43;;
74972;SDS011;63529;56.320;43.990;2022-11-11T18:23:18;25.30;;;8.98;;
74972;SDS011;63529;56.320;43.990;2022-11-11T18:26:03;24.98;;;8.50;;
74972;SDS011;63529;56.320;43.990;2022-11-11T18:28:49;24.30;;;8.10;;
74972;SDS011;63529;56.320;43.990;2022-11-11T18:31:33;20.13;;;7.85;;
74972;SDS011;63529;56.320;43.990;2022-11-11T18:34:18;22.50;;;8.52;;
74972;SDS011;63529;56.320;43.990;2022-11-11T18:37:02;22.02;;;8.57;;
74972;SDS011;63529;56.320;43.990;2022-11-11T18:39:47;22.45;;;8.40;;
74972;SDS011;63529;56.320;43.990;2022-11-11T18:42:32;23.35;;;8.13;;
74972;SDS011;63529;56.320;43.990;2022-11-11T18:45:16;20.92;;;8.60;;
74972;SDS011;63529;56.320;43.990;2022-11-11T18:48:01;25.65;;;8.73;;
74972;SDS011;63529;56.320;43.990;2022-11-11T18:50:52;20.08;;;8.05;;
74972;SDS011;63529;56.320;43.990;2022-11-11T18:53:37;19.33;;;7.68;;
74972;SDS011;63529;56.320;43.990;2022-11-11T18:56:24;21.75;;;7.82;;
74972;SDS011;63529;56.320;43.990;2022-11-11T18:59:09;20.63;;;7.78;;
74972;SDS011;63529;56.320;43.990;2022-11-11T19:01:53;20.10;;;7.18;;
74972;SDS011;63529;56.320;43.990;2022-11-11T19:04:37;17.27;;;6.93;;
74972;SDS011;63529;56.320;43.990;2022-11-11T19:07:22;20.17;;;7.25;;